Blowing Sand Mountains, Nevada Weather observations

Data are for observation ending at time listed.
 Day   Time    Ave.   Ave.  Ave.  Vector   Max.   Stn.    Total    Solar   Ave.  
  of    of     Air    Rel.  Wind   Wind    Wind   Baro.  Precip.   Rad.    Soil  
Year   Day     Temp.  Hum.  Speed  Dir.    Gust   Pres.                    Temp. 
2014   (PST)    F      %     mph   deg.    mph     mb.     in.     W/m2     F   
------------------------------------------------------------------------------
 297    9:30   51.3    38    0.8   294      2.1    883.1     0.00     536     53.1
 297    9:40   53.1    36    1.2   294      3.1    882.9     0.00     556     53.0
 297    9:50   53.9    35    1.1   286      2.6    882.7     0.00     575     53.0
 297   10:00   54.3    34    1.9   282      3.5    882.5     0.00     592     52.9
 297   10:10   55.4    32    1.5   289      2.8    882.4     0.00     608     52.8
 297   10:20   57.0    30    1.7   297      3.2    882.2     0.00     622     52.8
 297   10:30   58.9    28    1.6   264      3.0    882.1     0.00     635     52.7
 297   10:40   60.5    26    1.3   280      2.5    881.8     0.00     646     52.7
 297   10:50   62.8    24    1.1   273      2.6    881.7     0.00     655     52.6
 297   11:00   64.6    22    1.9   290      3.0    881.5     0.00     663     52.6
 297   11:10   66.3    21    2.2   278      3.9    881.3     0.00     669     52.5
 297   11:20   68.2    19    2.4   285      4.0    881.1     0.00     673     52.5
 297   11:30   69.6    17    3.2   284      5.5    880.9     0.00     675     52.5
 297   11:40   71.0    15    4.3   287      5.8    880.6     0.00     676     52.5
 297   11:50   72.0    14    4.6   291      7.5    880.3     0.00     675     52.5
 297   12:00   73.2    14    5.7   276      8.9    880.0     0.00     672     52.5
 297   12:10   74.5    13    5.1   296      8.3    879.8     0.00     668     52.5
 297   12:20   75.3    13    7.4   301     10.4    879.5     0.00     662     52.5
 297   12:30   75.8    13    9.4   302     13.6    879.2     0.00     654     52.5
 297   12:40   76.1    13    9.7   307     13.7    879.1     0.00     645     52.5
 297   12:50   76.9    13    9.5   308     13.2    879.0     0.00     633     52.5
 297   13:00   77.1    12    8.0   313     11.5    878.8     0.00     621     52.5
 297   13:10   77.4    12    8.9   310     13.4    878.7     0.00     606     52.5
 297   13:20   77.8    12    7.8   309     12.6    878.5     0.00     590     52.6
 297   13:30   78.5    11    6.9   318     10.9    878.4     0.00     574     52.6
 297   13:40   78.9    11    7.1   322     10.7    878.3     0.00     555     52.7
 297   13:50   79.0    11    6.0   319     10.7    878.3     0.00     534     52.7
 297   14:00   79.2    11    5.3   319      9.0    878.1     0.00     513     52.8
 297   14:10   80.1    11    4.4   308      7.7    878.1     0.00     491     52.8
 297   14:20   80.1    10    5.1   317      8.0    878.0     0.00     468     52.9
 297   14:30   80.5    10    3.0   294      5.3    877.9     0.00     443     53.0
 297   14:40   81.1    10    2.7   311      5.6    877.8     0.00     417     53.0
 297   14:50   81.0    10    3.1   303      5.0    877.7     0.00     390     53.1
 297   15:00   81.1    10    4.5   286      6.3    877.6     0.00     363     53.2
 297   15:10   81.6     9    2.3   324      5.8    877.5     0.00     335     53.2
 297   15:20   81.8     9    3.4   306      5.5    877.4     0.00     307     53.3
 297   15:30   82.0     9    2.9   349      6.4    877.3     0.00     277     53.4
 297   15:40   81.6    10    1.8   297      4.7    877.2     0.00     248     53.5
 297   15:50   82.2     9    2.4   284      4.9    877.2     0.00     219     53.6
 297   16:00   79.7    11    5.1   293      6.4    877.0     0.00     190     53.7
 297   16:10   78.6    12    4.7   292      8.6    876.9     0.00     159     53.8
 297   16:20   78.3    12    4.0   289      7.1    876.9     0.00     128     53.9
 297   16:30   77.3    12    5.0   298      9.7    876.9     0.00      91     53.9
 297   16:40   76.5    12    5.8   305      7.9    876.9     0.00      57     54.0
 297   16:50   74.0    14    5.4   308      7.7    876.8     0.00      28     54.1
 297   17:00   72.0    16    6.6   309     11.4    876.8     0.00       7     54.2
 297   17:10   72.0    17    6.5   311      9.1    876.8     0.00       3     54.3
 297   17:20   69.5    19    6.2   298      8.1    876.9     0.00       1     54.4
 297   17:30   67.8    20    3.7    43      6.4    877.0     0.00       0     54.5
 297   17:40   65.5    21    3.4    98      6.7    877.2     0.00       0     54.6
 297   17:50   64.5    22    2.7   114      7.8    877.3     0.00       0     54.7
 297   18:00   63.3    24    3.9    83      6.1    877.5     0.00       0     54.8
 297   18:10   62.5    24    3.9    79      5.5    877.6     0.00       0     54.9
 297   18:20   60.4    26    2.2   109      3.4    877.7     0.00       0     55.0
 297   18:30   59.2    27    1.9    86      5.0    877.8     0.00       0     55.1
 297   18:40   57.4    28    2.0   149      5.3    877.9     0.00       0     55.1
 297   18:50   56.7    29    2.4    85      5.8    878.0     0.00       0     55.2
 297   19:00   56.9    28    4.1   111      5.6    878.1     0.00       0     55.3
 297   19:10   55.7    30    2.7   161      5.5    878.1     0.00       0     55.3
 297   19:20   55.9    30    1.4    74      3.4    878.2     0.00       0     55.4
 297   19:30   54.4    31    1.8   355      3.7    878.3     0.00       0     55.5
 297   19:40   52.8    33    0.7   166      2.6    878.4     0.00       0     55.5
 297   19:50   52.4    33    2.5   135      4.9    878.5     0.00       0     55.6
 297   20:00   50.7    34    2.2   164      4.6    878.6     0.00       0     55.6
 297   20:10   50.7    34    2.1   113      5.2    878.7     0.00       0     55.7
 297   20:20   52.4    29    3.5    74      6.0    878.7     0.00       0     55.7
 297   20:30   51.8    29    3.3   100      6.4    878.7     0.00       0     55.8
 297   20:40   54.8    24    3.7    93      6.3    878.7     0.00       0     55.8
 297   20:50   57.2    22    4.5    91      8.6    878.7     0.00       0     55.9
 297   21:00   58.8    20    4.9    87      7.8    878.8     0.00       0     55.9
 297   21:10   56.5    23    1.1   166      4.4    878.9     0.00       0     55.9
 297   21:20   56.2    22    4.5    92      6.6    879.0     0.00       0     55.9
 297   21:30   60.3    18    5.2   105      8.2    879.0     0.00       0     55.9
 297   21:40   56.1    22    3.7    67      7.4    879.0     0.00       0     56.0
 297   21:50   56.1    22    1.0    81      3.0    879.1     0.00       0     56.0
 297   22:00   57.4    21    4.6   115     10.3    879.1     0.00       0     56.0
 297   22:10   60.8    18    6.1   116      9.7    879.1     0.00       0     56.0
 297   22:20   60.2    18    5.8    96      8.3    879.1     0.00       0     56.0
 297   22:30   61.0    18    5.2    94      9.6    879.2     0.00       0     56.0
 297   22:40   59.0    19    4.9    82      6.6    879.2     0.00       0     56.0
 297   22:50   59.1    19    5.3    93      7.5    879.2     0.00       0     56.0
 297   23:00   58.2    20    5.4   101      9.4    879.2     0.00       0     56.0
 297   23:10   59.1    19    4.6   136      8.8    879.2     0.00       0     56.0
 297   23:20   57.8    20    4.8   152      6.8    879.2     0.00       0     56.0
 297   23:30   57.4    20    2.9   121      5.1    879.3     0.00       0     56.0
 297   23:40   56.8    21    2.4    64      3.8    879.2     0.00       0     56.0
 297   23:50   55.5    22    4.6    82      7.0    879.2     0.00       0     56.0
 298    0:00   55.9    22    6.1   109      9.8    879.2     0.00       0     56.0
 298    0:10   56.8    21    6.3   114      8.0    879.2     0.00       0     56.0
 298    0:20   56.8    21    5.7    96      7.2    879.1     0.00       0     56.0
 298    0:30   54.7    23    4.9    94      6.4    879.0     0.00       0     55.9
 298    0:40   55.0    23    5.3    98      7.0    878.8     0.00       0     55.9
 298    0:50   53.9    24    4.8    93      6.1    878.8     0.00       0     55.9
 298    1:00   52.1    26    5.0    91      6.4    878.7     0.00       0     55.9
 298    1:10   54.5    23    4.7    99      6.8    878.4     0.00       0     55.8
 298    1:20   55.0    22    4.6   104      6.6    878.3     0.00       0     55.8
 298    1:30   54.7    23    4.9    94      7.3    878.2     0.00       0     55.8
 298    1:40   56.8    21    5.3   100      6.9    878.1     0.00       0     55.8
 298    1:50   58.7    19    5.0   109      6.2    878.0     0.00       0     55.7
 298    2:00   57.3    21    5.4    94      8.1    877.8     0.00       0     55.7
 298    2:10   58.7    21    6.5   106     10.0    877.7     0.00       0     55.7
 298    2:20   59.1    22    7.2    78     12.7    877.6     0.00       0     55.7
 298    2:30   58.4    23    5.1    85      8.8    877.6     0.00       0     55.6
 298    2:40   56.6    25    4.6    71      7.5    877.6     0.00       0     55.6
 298    2:50   56.5    25    2.7    23      4.3    877.7     0.00       0     55.6
 298    3:00   55.8    26    4.0    42      5.6    877.7     0.00       0     55.6
 298    3:10   53.7    28    4.8    49      6.1    877.7     0.00       0     55.5
 298    3:20   53.5    28    4.5    79      7.6    877.7     0.00       0     55.5
 298    3:30   54.2    28    5.3   114      7.1    877.5     0.00       0     55.5
 298    3:40   52.6    29    3.7   142      6.3    877.5     0.00       0     55.4
 298    3:50   53.4    28    3.8   123      6.4    877.6     0.00       0     55.4
 298    4:00   55.3    27    5.6   110      8.2    877.5     0.00       0     55.4
 298    4:10   57.0    27    4.3   116      7.5    877.4     0.00       0     55.3
 298    4:20   57.3    26    3.7   113      6.1    877.3     0.00       0     55.3
 298    4:30   57.0    27    2.9   141      4.5    877.3     0.00       0     55.3
 298    4:40   57.9    26    5.3   143     12.5    877.5     0.00       0     55.2
 298    4:50   60.2    24    9.3    93     14.7    877.3     0.00       0     55.2
 298    5:00   60.5    24    6.2    97     14.2    877.2     0.00       0     55.2
 298    5:10   57.7    28    3.5   113      5.1    877.3     0.00       0     55.1
 298    5:20   58.3    27    2.5   121      6.0    877.3     0.00       0     55.1
 298    5:30   58.8    26    5.4    67      9.7    877.1     0.00       0     55.1
 298    5:40   59.4    24    2.7    76      6.4    877.2     0.00       0     55.1
 298    5:50   58.6    25    4.4    73      6.4    877.2     0.00       0     55.0
 298    6:00   59.1    24    7.3   106     13.2    877.3     0.00       0     55.0
 298    6:10   59.4    26    5.8    98      9.3    877.3     0.00       4     55.0
 298    6:20   59.3    26    6.9    84     15.3    877.4     0.00       6     54.9
 298    6:30   60.4    25    8.3    75     13.4    877.4     0.00      11     54.9
 298    6:40   60.4    24    4.8    59      9.9    877.4     0.00      31     54.8
 298    6:50   60.0    24    4.5    83     11.0    877.5     0.00      29     54.8
 298    7:00   59.5    24    6.6    78     10.0    877.5     0.00      36     54.8
 298    7:10   58.5    26    5.3    72      8.9    877.5     0.00      66     54.8
 298    7:20   59.6    23    3.0    99      7.0    877.5     0.00      94     54.8
 298    7:30   61.2    21    1.7   110      6.1    877.6     0.00     142     54.7
 298    7:40   64.1    18    8.9   179     14.5    877.6     0.00     285     54.7
 298    7:50   66.8    16   11.1   172     15.3    877.5     0.00     356     54.6
 298    8:00   68.7    14   11.3   167     14.9    877.5     0.00     262     54.6
 298    8:10   69.1    14   13.6   161     20.3    877.5     0.00     337     54.5
 298    8:20   70.1    13   15.0   157     23.0    877.5     0.00     339     54.5
 298    8:30   70.2    13   16.0   155     22.1    877.4     0.00     361     54.5
 298    8:40   70.5    13   17.1   159     24.3    877.3     0.00     375     54.5
 298    8:50   70.8    12   16.1   154     24.8    877.2     0.00     278     54.4
 298    9:00   71.8    11   18.1   163     25.1    877.1     0.00     428     54.4
 298    9:10   73.1    10   18.3   173     26.1    877.1     0.00     478     54.4
 298    9:20   73.6    10   18.1   164     27.0    877.0     0.00     506     54.4

Return to Blowing Sand Mountains graphs page.


Western Regional Climate Center,wrcc@dri.edu